createdAt,value
2023-02-01T00:00:30.627Z,3.8
2023-02-01T00:01:33.425Z,3.7
2023-02-01T00:02:36.199Z,3.7
2023-02-01T00:03:40.498Z,3.7
2023-02-01T00:04:43.350Z,3.8
2023-02-01T00:05:47.079Z,3.8
2023-02-01T00:06:50.553Z,3.7
2023-02-01T00:07:53.669Z,3.8
2023-02-01T00:08:56.972Z,3.8
2023-02-01T00:10:00.530Z,3.8
2023-02-01T00:11:03.620Z,3.8
2023-02-01T00:12:07.075Z,3.8
2023-02-01T00:13:10.558Z,3.8
2023-02-01T00:14:13.818Z,3.8
2023-02-01T00:15:17.568Z,3.8
2023-02-01T00:16:21.439Z,3.9
2023-02-01T00:17:25.259Z,3.9
2023-02-01T00:18:28.093Z,3.9
2023-02-01T00:19:30.922Z,3.9
2023-02-01T00:20:35.330Z,3.8
2023-02-01T00:21:38.356Z,3.9
2023-02-01T00:22:41.480Z,3.9
2023-02-01T00:23:44.579Z,3.9
2023-02-01T00:24:47.409Z,3.9
2023-02-01T00:25:50.543Z,3.9
2023-02-01T00:26:54.371Z,3.9
2023-02-01T00:27:57.782Z,3.9
2023-02-01T00:29:00.500Z,3.9
2023-02-01T00:30:03.620Z,3.9
2023-02-01T00:31:07.723Z,3.8
2023-02-01T00:32:11.200Z,3.8
2023-02-01T00:33:14.671Z,3.9
2023-02-01T00:34:17.614Z,3.9
2023-02-01T00:35:21.677Z,3.9
2023-02-01T00:36:24.420Z,3.9
2023-02-01T00:37:27.089Z,3.9
2023-02-01T00:38:30.487Z,3.9
2023-02-01T00:39:33.793Z,3.9
2023-02-01T00:40:36.889Z,4
2023-02-01T00:41:40.038Z,3.9
2023-02-01T00:42:43.109Z,4
2023-02-01T00:43:45.848Z,3.9
2023-02-01T00:44:48.552Z,3.9
2023-02-01T00:45:51.352Z,4
2023-02-01T00:46:54.929Z,3.9
2023-02-01T00:47:57.581Z,4
2023-02-01T00:49:01.113Z,4
2023-02-01T00:50:04.496Z,3.9
2023-02-01T00:51:07.402Z,4
2023-02-01T00:52:10.457Z,4
2023-02-01T00:53:14.149Z,4
2023-02-01T00:54:17.325Z,4
2023-02-01T00:55:20.403Z,4
2023-02-01T00:56:23.127Z,4
2023-02-01T00:57:26.516Z,4
2023-02-01T00:58:29.889Z,4.1
2023-02-01T00:59:33.221Z,4.1
2023-02-01T01:00:36.802Z,4.1
2023-02-01T01:01:40.540Z,4
2023-02-01T01:02:43.653Z,4.1
2023-02-01T01:03:46.404Z,4.1
2023-02-01T01:04:49.493Z,4.1
2023-02-01T01:05:52.438Z,4.1
2023-02-01T01:06:56.126Z,4.1
2023-02-01T01:07:59.223Z,4.1
2023-02-01T01:09:03.007Z,4
2023-02-01T01:10:06.435Z,4.1
2023-02-01T01:11:09.625Z,4.1
2023-02-01T01:12:12.460Z,4.1
2023-02-01T01:13:15.540Z,4.1
2023-02-01T01:14:18.547Z,4.1
2023-02-01T01:15:21.273Z,4.1
2023-02-01T01:16:25.103Z,4.1
2023-02-01T01:17:28.302Z,4.1
2023-02-01T01:18:31.392Z,4.1
2023-02-01T01:19:34.490Z,4.1
2023-02-01T01:20:37.884Z,4.1
2023-02-01T01:21:40.978Z,4.1
2023-02-01T01:22:43.742Z,4.1
2023-02-01T01:23:47.155Z,4.1
2023-02-01T01:24:50.061Z,4.1
2023-02-01T01:25:53.444Z,4.1
2023-02-01T01:26:56.764Z,4.1
2023-02-01T01:27:59.476Z,4.1
2023-02-01T01:29:02.351Z,4.1
2023-02-01T01:30:04.610Z,4.1
2023-02-01T01:31:08.335Z,4.1
2023-02-01T01:32:11.575Z,4.1
2023-02-01T01:33:14.711Z,4.1
2023-02-01T01:34:17.446Z,4.1
2023-02-01T01:35:20.781Z,4.1
2023-02-01T01:36:24.258Z,4.1
2023-02-01T01:37:27.660Z,4.1
2023-02-01T01:38:31.500Z,4.1
2023-02-01T01:39:34.536Z,4.1
2023-02-01T01:40:37.994Z,4.1
2023-02-01T01:41:41.387Z,4.2
2023-02-01T01:42:44.790Z,4.2
2023-02-01T01:43:47.230Z,4.2
2023-02-01T01:44:50.600Z,4.2
2023-02-01T01:45:54.611Z,4.2
2023-02-01T01:46:57.126Z,4.2
2023-02-01T01:48:00.630Z,4.2
2023-02-01T01:49:04.339Z,4.2
2023-02-01T01:50:07.619Z,4.2
2023-02-01T01:51:10.469Z,4.2
2023-02-01T01:52:12.962Z,4.2
2023-02-01T01:53:16.119Z,4.2
2023-02-01T01:54:19.033Z,4.2
2023-02-01T01:55:22.208Z,4.3
2023-02-01T01:56:25.400Z,4.2
2023-02-01T01:57:28.190Z,4.2
2023-02-01T01:58:30.718Z,4.2
2023-02-01T01:59:33.163Z,4.2
2023-02-01T02:00:37.062Z,4.3
2023-02-01T02:01:40.367Z,4.3
2023-02-01T02:02:43.381Z,4.3
2023-02-01T02:03:46.465Z,4.3
2023-02-01T02:04:50.102Z,4.3
2023-02-01T02:05:53.392Z,4.2
2023-02-01T02:06:57.104Z,4.3
2023-02-01T02:08:00.612Z,4.3
2023-02-01T02:09:07.940Z,4.3
2023-02-01T02:10:11.163Z,4.3
2023-02-01T02:11:14.647Z,4.3
2023-02-01T02:12:18.088Z,4.3
2023-02-01T02:13:21.562Z,4.3
2023-02-01T02:14:24.998Z,4.3
2023-02-01T02:15:28.055Z,4.3
2023-02-01T02:16:31.176Z,4.3
2023-02-01T02:17:35.298Z,4.3
2023-02-01T02:18:39.025Z,4.3
2023-02-01T02:19:42.457Z,4.3
2023-02-01T02:20:45.518Z,4.3
2023-02-01T02:21:47.848Z,4.3
2023-02-01T02:22:50.680Z,4.3
2023-02-01T02:23:53.750Z,4.3
2023-02-01T02:24:56.586Z,4.3
2023-02-01T02:25:59.918Z,4.3
2023-02-01T02:27:02.978Z,4.3
2023-02-01T02:28:06.727Z,4.3
2023-02-01T02:29:10.094Z,4.4
2023-02-01T02:30:13.168Z,4.3
2023-02-01T02:31:17.512Z,4.3
2023-02-01T02:32:20.606Z,4.3
2023-02-01T02:33:22.770Z,4.4
2023-02-01T02:34:25.207Z,4.4
2023-02-01T02:35:28.190Z,4.3
2023-02-01T02:36:31.565Z,4.3
2023-02-01T02:37:35.003Z,4.3
2023-02-01T02:38:37.519Z,4.3
2023-02-01T02:39:40.512Z,4.3
2023-02-01T02:40:43.936Z,4.3
2023-02-01T02:41:47.062Z,4.3
2023-02-01T02:42:50.476Z,4.3
2023-02-01T02:43:53.677Z,4.3
2023-02-01T02:44:57.158Z,4.3
2023-02-01T02:46:01.178Z,4.3
2023-02-01T02:47:05.009Z,4.3
2023-02-01T02:48:08.303Z,4.3
2023-02-01T02:49:11.392Z,4.3
2023-02-01T02:50:14.757Z,4.3
2023-02-01T02:51:18.132Z,4.4
2023-02-01T02:52:20.908Z,4.4
2023-02-01T02:53:23.634Z,4.4
2023-02-01T02:54:27.004Z,4.4
2023-02-01T02:55:29.542Z,4.4
2023-02-01T02:56:32.953Z,4.4
2023-02-01T02:57:36.079Z,4.4
2023-02-01T02:58:39.196Z,4.4
2023-02-01T02:59:43.011Z,4.4
2023-02-01T03:00:46.851Z,4.4
2023-02-01T03:01:49.661Z,4.4
2023-02-01T03:02:52.924Z,4.5
2023-02-01T03:03:56.307Z,4.4
2023-02-01T03:04:59.453Z,4.5
2023-02-01T03:06:02.481Z,4.5
2023-02-01T03:07:06.126Z,4.5
2023-02-01T03:08:09.512Z,4.5
2023-02-01T03:09:12.678Z,4.5
2023-02-01T03:10:15.691Z,4.5
2023-02-01T03:11:18.512Z,4.5
2023-02-01T03:12:21.336Z,4.5
2023-02-01T03:13:24.449Z,4.6
2023-02-01T03:14:26.976Z,4.6
2023-02-01T03:15:30.218Z,4.6
2023-02-01T03:16:33.930Z,4.6
2023-02-01T03:17:37.716Z,4.6
2023-02-01T03:18:40.506Z,4.6
2023-02-01T03:19:43.545Z,4.6
2023-02-01T03:20:46.995Z,4.6
2023-02-01T03:21:50.156Z,4.6
2023-02-01T03:22:53.768Z,4.7
2023-02-01T03:23:56.950Z,4.7
2023-02-01T03:25:00.040Z,4.6
2023-02-01T03:26:02.927Z,4.7
2023-02-01T03:27:06.537Z,4.7
2023-02-01T03:28:09.283Z,4.7
2023-02-01T03:29:13.947Z,4.6
2023-02-01T03:30:17.435Z,4.7
2023-02-01T03:31:21.056Z,4.7
2023-02-01T03:32:24.223Z,4.7
2023-02-01T03:33:27.337Z,4.7
2023-02-01T03:34:30.094Z,4.8
2023-02-01T03:35:33.183Z,4.8
2023-02-01T03:36:35.896Z,4.8
2023-02-01T03:37:39.559Z,4.8
2023-02-01T03:38:42.657Z,4.8
2023-02-01T03:39:45.729Z,4.8
2023-02-01T03:40:48.497Z,4.8
2023-02-01T03:41:51.539Z,4.8
2023-02-01T03:42:54.437Z,4.8
2023-02-01T03:43:56.937Z,4.7
2023-02-01T03:44:59.497Z,4.7
2023-02-01T03:46:03.298Z,4.8
2023-02-01T03:47:06.803Z,4.8
2023-02-01T03:48:09.880Z,4.8
2023-02-01T03:49:12.586Z,4.7
2023-02-01T03:50:15.600Z,4.8
2023-02-01T03:51:19.040Z,4.7
2023-02-01T03:52:22.386Z,4.8
2023-02-01T03:53:25.787Z,4.8
2023-02-01T03:54:28.800Z,4.8
2023-02-01T03:55:32.161Z,4.8
2023-02-01T03:56:34.950Z,4.8
2023-02-01T03:57:38.060Z,4.8
2023-02-01T03:58:40.568Z,4.8
2023-02-01T03:59:43.962Z,4.8
2023-02-01T04:00:47.108Z,4.8
2023-02-01T04:01:49.853Z,4.8
2023-02-01T04:02:53.622Z,4.8
2023-02-01T04:03:57.145Z,4.9
2023-02-01T04:05:00.528Z,4.9
2023-02-01T04:06:03.709Z,4.9
2023-02-01T04:07:06.718Z,4.9
2023-02-01T04:08:10.116Z,4.9
2023-02-01T04:09:12.835Z,4.9
2023-02-01T04:10:19.797Z,4.9
2023-02-01T04:11:22.936Z,4.9
2023-02-01T04:12:26.224Z,4.9
2023-02-01T04:13:29.556Z,4.9
2023-02-01T04:14:32.636Z,4.9
2023-02-01T04:15:36.394Z,4.8
2023-02-01T04:16:40.609Z,4.8
2023-02-01T04:17:44.114Z,4.7
2023-02-01T04:18:47.861Z,4.6
2023-02-01T04:19:51.046Z,4.6
2023-02-01T04:20:53.472Z,4.6
2023-02-01T04:21:56.869Z,4.5
2023-02-01T04:23:00.208Z,4.5
2023-02-01T04:24:03.416Z,4.5
2023-02-01T04:25:07.487Z,4.5
2023-02-01T04:26:10.404Z,4.5
2023-02-01T04:27:14.181Z,4.4
2023-02-01T04:28:16.911Z,4.4
2023-02-01T04:29:20.623Z,4.4
2023-02-01T04:30:25.681Z,4.4
2023-02-01T04:31:30.119Z,4.3
2023-02-01T04:32:33.496Z,4.3
2023-02-01T04:33:37.007Z,4.3
2023-02-01T04:34:40.806Z,4.3
2023-02-01T04:35:43.985Z,4.2
2023-02-01T04:36:48.459Z,4.2
2023-02-01T04:37:51.451Z,4.2
2023-02-01T04:38:55.180Z,4.2
2023-02-01T04:39:58.626Z,4.1
2023-02-01T04:41:01.063Z,4.1
2023-02-01T04:42:04.431Z,4.1
2023-02-01T04:43:06.681Z,4.2
2023-02-01T04:44:09.469Z,4.2
2023-02-01T04:45:13.196Z,4.2
2023-02-01T04:46:16.532Z,4.2
2023-02-01T04:47:20.035Z,4.2
2023-02-01T04:48:26.573Z,4.1
2023-02-01T04:49:29.124Z,4.1
2023-02-01T04:50:32.059Z,4.1
2023-02-01T04:51:35.783Z,4.1
2023-02-01T04:52:38.537Z,4
2023-02-01T04:53:41.359Z,4
2023-02-01T04:54:44.743Z,3.9
2023-02-01T04:55:48.112Z,3.8
2023-02-01T04:56:50.917Z,3.8
2023-02-01T04:57:54.009Z,3.8
2023-02-01T04:58:57.072Z,3.7
2023-02-01T05:00:00.147Z,3.6
2023-02-01T05:01:03.137Z,3.6
2023-02-01T05:02:05.376Z,3.7
2023-02-01T05:03:08.477Z,3.6
2023-02-01T05:04:11.910Z,3.6
2023-02-01T05:05:15.318Z,3.6
2023-02-01T05:06:18.839Z,3.6
2023-02-01T05:07:22.228Z,3.6
2023-02-01T05:08:25.698Z,3.5
2023-02-01T05:09:28.799Z,3.5
2023-02-01T05:10:31.920Z,3.6
2023-02-01T05:11:34.639Z,3.6
2023-02-01T05:12:37.343Z,3.6
2023-02-01T05:13:40.715Z,3.6
2023-02-01T05:14:43.511Z,3.6
2023-02-01T05:15:46.775Z,3.5
2023-02-01T05:16:49.710Z,3.5
2023-02-01T05:17:52.972Z,3.5
2023-02-01T05:18:57.111Z,3.5
2023-02-01T05:20:00.441Z,3.4
2023-02-01T05:21:03.622Z,3.5
2023-02-01T05:22:07.040Z,3.5
2023-02-01T05:23:09.843Z,3.5
2023-02-01T05:24:13.296Z,3.5
2023-02-01T05:25:16.124Z,3.5
2023-02-01T05:26:19.513Z,3.5
2023-02-01T05:27:22.236Z,3.5
2023-02-01T05:28:25.739Z,3.5
2023-02-01T05:29:29.104Z,3.5
2023-02-01T05:30:32.404Z,3.5
2023-02-01T05:31:36.885Z,3.5
2023-02-01T05:32:40.228Z,3.5
2023-02-01T05:33:43.002Z,3.5
2023-02-01T05:34:46.149Z,3.5
2023-02-01T05:35:49.660Z,3.6
2023-02-01T05:36:53.059Z,3.6
2023-02-01T05:37:56.615Z,3.6
2023-02-01T05:39:00.082Z,3.6
2023-02-01T05:40:03.405Z,3.7
2023-02-01T05:41:06.445Z,3.7
2023-02-01T05:42:09.795Z,3.8
2023-02-01T05:43:12.879Z,3.8
2023-02-01T05:44:16.304Z,3.8
2023-02-01T05:45:19.023Z,3.7
2023-02-01T05:46:22.270Z,3.7
2023-02-01T05:47:25.359Z,3.7
2023-02-01T05:48:29.125Z,3.7
2023-02-01T05:49:32.128Z,3.6
2023-02-01T05:50:34.400Z,3.6
2023-02-01T05:51:38.110Z,3.7
2023-02-01T05:52:41.500Z,3.6
2023-02-01T05:53:45.554Z,3.5
2023-02-01T05:54:49.599Z,3.4
2023-02-01T05:55:52.815Z,3.4
2023-02-01T05:56:55.908Z,3.4
2023-02-01T05:57:58.869Z,3.3
2023-02-01T05:59:01.963Z,3.3
2023-02-01T06:00:05.856Z,3.3
2023-02-01T06:01:09.301Z,3.3
2023-02-01T06:02:12.797Z,3.3
2023-02-01T06:03:15.513Z,3.2
2023-02-01T06:04:18.600Z,3.2
2023-02-01T06:05:22.063Z,3.2
2023-02-01T06:06:25.710Z,3.2
2023-02-01T06:07:31.233Z,3.1
2023-02-01T06:08:33.988Z,3.1
2023-02-01T06:09:37.681Z,3.1
2023-02-01T06:10:40.472Z,3.1
2023-02-01T06:11:43.830Z,3.1
2023-02-01T06:12:46.689Z,3.1
2023-02-01T06:13:49.848Z,3
2023-02-01T06:14:53.028Z,3.1
2023-02-01T06:15:55.895Z,3.1
2023-02-01T06:16:58.658Z,3
2023-02-01T06:18:02.225Z,3
2023-02-01T06:19:05.025Z,3
2023-02-01T06:20:08.934Z,3
2023-02-01T06:21:15.009Z,3
2023-02-01T06:22:18.647Z,3.1
2023-02-01T06:23:21.494Z,3.1
2023-02-01T06:24:24.581Z,3.1
2023-02-01T06:25:27.781Z,3.1
2023-02-01T06:26:31.408Z,3.1
2023-02-01T06:27:34.811Z,3.1
2023-02-01T06:28:38.097Z,3.1
2023-02-01T06:29:41.171Z,3.1
2023-02-01T06:30:44.262Z,3.1
2023-02-01T06:31:47.225Z,3.1
2023-02-01T06:32:50.621Z,3.1
2023-02-01T06:33:53.957Z,3.1
2023-02-01T06:34:58.036Z,3.1
2023-02-01T06:36:01.141Z,3.1
2023-02-01T06:37:04.234Z,3.1
2023-02-01T06:38:07.472Z,3.1
2023-02-01T06:39:10.816Z,3.1
2023-02-01T06:40:14.167Z,3.1
2023-02-01T06:41:17.297Z,3.1
2023-02-01T06:42:20.499Z,3.1
2023-02-01T06:43:23.352Z,3.1
2023-02-01T06:44:26.731Z,3.2
2023-02-01T06:45:29.543Z,3.2
2023-02-01T06:46:32.712Z,3.2
2023-02-01T06:47:36.096Z,3.1
2023-02-01T06:48:39.820Z,3.2
2023-02-01T06:49:42.647Z,3.2
2023-02-01T06:50:45.081Z,3.3
2023-02-01T06:51:47.893Z,3.2
2023-02-01T06:52:51.694Z,3.3
2023-02-01T06:53:55.091Z,3.3
2023-02-01T06:54:57.875Z,3.3
2023-02-01T06:56:01.632Z,3.3
2023-02-01T06:57:05.657Z,3.3
2023-02-01T06:58:08.732Z,3.3
2023-02-01T06:59:12.473Z,3.3
2023-02-01T07:00:15.614Z,3.3
2023-02-01T07:01:18.699Z,3.3
2023-02-01T07:02:22.425Z,3.3
2023-02-01T07:03:25.578Z,3.3
2023-02-01T07:04:28.466Z,3.3
2023-02-01T07:05:31.503Z,3.2
2023-02-01T07:06:35.164Z,3.2
2023-02-01T07:07:38.635Z,3.2
2023-02-01T07:08:41.702Z,3.2
2023-02-01T07:09:45.379Z,3.2
2023-02-01T07:10:48.722Z,3.2
2023-02-01T07:11:52.406Z,3.2
2023-02-01T07:12:55.575Z,3.2
2023-02-01T07:13:58.773Z,3.3
2023-02-01T07:15:02.063Z,3.2
2023-02-01T07:16:06.012Z,3.3
2023-02-01T07:17:09.385Z,3.2
2023-02-01T07:18:12.471Z,3.2
2023-02-01T07:19:14.906Z,3.2
2023-02-01T07:20:18.042Z,3.2
2023-02-01T07:21:21.797Z,3.2
2023-02-01T07:22:24.335Z,3.1
2023-02-01T07:23:27.466Z,3.1
2023-02-01T07:24:30.526Z,3.2
2023-02-01T07:25:33.715Z,3.2
2023-02-01T07:26:36.941Z,3.2
2023-02-01T07:27:40.138Z,3.1
2023-02-01T07:28:43.671Z,3.1
2023-02-01T07:29:47.368Z,3.1
2023-02-01T07:30:50.622Z,3.1
2023-02-01T07:31:54.116Z,3
2023-02-01T07:32:57.690Z,3
2023-02-01T07:34:01.530Z,3
2023-02-01T07:35:03.954Z,3
2023-02-01T07:36:07.308Z,3
2023-02-01T07:37:10.344Z,3
2023-02-01T07:38:13.135Z,2.9
2023-02-01T07:39:16.613Z,3
2023-02-01T07:40:19.777Z,2.9
2023-02-01T07:41:22.932Z,2.9
2023-02-01T07:42:26.176Z,2.9
2023-02-01T07:43:29.686Z,2.8
2023-02-01T07:44:33.884Z,2.8
2023-02-01T07:45:38.705Z,2.8
2023-02-01T07:46:42.236Z,2.8
2023-02-01T07:47:45.005Z,2.8
2023-02-01T07:48:48.678Z,2.9
2023-02-01T07:49:52.484Z,2.9
2023-02-01T07:50:55.932Z,2.8
2023-02-01T07:51:58.915Z,2.8
2023-02-01T07:53:01.181Z,2.8
2023-02-01T07:54:04.558Z,2.9
2023-02-01T07:55:07.495Z,2.9
2023-02-01T07:56:10.625Z,2.9
2023-02-01T07:57:13.357Z,2.9
2023-02-01T07:58:16.752Z,2.9
2023-02-01T07:59:19.764Z,2.8
2023-02-01T08:00:25.195Z,2.8
2023-02-01T08:01:29.891Z,2.8
2023-02-01T08:02:33.353Z,2.7
2023-02-01T08:03:36.562Z,2.7
2023-02-01T08:04:38.996Z,2.8
2023-02-01T08:05:42.063Z,2.8
2023-02-01T08:06:45.711Z,2.7
2023-02-01T08:07:48.593Z,2.7
2023-02-01T08:08:52.047Z,2.8
2023-02-01T08:09:55.448Z,2.7
2023-02-01T08:10:58.791Z,2.7
2023-02-01T08:12:01.317Z,2.7
2023-02-01T08:13:04.801Z,2.7
2023-02-01T08:14:08.019Z,2.8
2023-02-01T08:15:11.106Z,2.7
2023-02-01T08:16:15.085Z,2.7
2023-02-01T08:17:19.076Z,2.7
2023-02-01T08:18:21.584Z,2.7
2023-02-01T08:19:25.324Z,2.7
2023-02-01T08:20:28.777Z,2.8
2023-02-01T08:21:31.269Z,2.8
2023-02-01T08:22:34.458Z,2.7
2023-02-01T08:23:37.716Z,2.8
2023-02-01T08:24:41.244Z,2.8
2023-02-01T08:25:43.768Z,2.8
2023-02-01T08:26:47.917Z,2.8
2023-02-01T08:27:50.968Z,2.9
2023-02-01T08:28:54.776Z,2.9
2023-02-01T08:29:58.296Z,2.9
2023-02-01T08:31:01.690Z,2.9
2023-02-01T08:32:05.074Z,2.9
2023-02-01T08:33:08.555Z,2.9
2023-02-01T08:34:12.291Z,2.9
2023-02-01T08:35:15.680Z,2.9
2023-02-01T08:36:18.739Z,2.9
2023-02-01T08:37:22.359Z,3
2023-02-01T08:38:25.362Z,3
2023-02-01T08:39:28.467Z,3.1
2023-02-01T08:40:31.620Z,3.1
2023-02-01T08:41:35.217Z,3.1
2023-02-01T08:42:39.337Z,3.2
2023-02-01T08:43:42.996Z,3.1
2023-02-01T08:44:46.482Z,3.1
2023-02-01T08:45:50.406Z,3.2
2023-02-01T08:46:53.915Z,3.2
2023-02-01T08:47:57.821Z,3.2
2023-02-01T08:49:00.945Z,3.2
2023-02-01T08:50:03.789Z,3.2
2023-02-01T08:51:07.269Z,3.2
2023-02-01T08:52:17.948Z,3.2
2023-02-01T08:53:21.170Z,3.2
2023-02-01T08:54:24.554Z,3.3
2023-02-01T08:55:28.347Z,3.3
2023-02-01T08:56:31.866Z,3.3
2023-02-01T08:57:35.631Z,3.3
2023-02-01T08:58:39.031Z,3.3
2023-02-01T08:59:42.313Z,3.4
2023-02-01T09:00:45.705Z,3.4
2023-02-01T09:01:49.311Z,3.5
2023-02-01T09:02:52.641Z,3.5
2023-02-01T09:03:56.623Z,3.5
2023-02-01T09:05:01.071Z,3.5
2023-02-01T09:06:04.484Z,3.5
2023-02-01T09:07:08.439Z,3.5
2023-02-01T09:08:11.845Z,3.6
2023-02-01T09:09:14.632Z,3.6
2023-02-01T09:10:37.853Z,3.6
2023-02-01T09:11:43.434Z,3.6
2023-02-01T09:12:46.415Z,3.6
2023-02-01T09:13:50.156Z,3.7
2023-02-01T09:14:53.558Z,3.7
2023-02-01T09:15:57.724Z,3.7
2023-02-01T09:17:01.317Z,3.7
2023-02-01T09:18:04.499Z,3.7
2023-02-01T09:19:28.345Z,3.8
2023-02-01T09:20:31.966Z,3.9
2023-02-01T09:21:35.772Z,3.9
2023-02-01T09:22:39.790Z,3.9
2023-02-01T09:23:42.806Z,4
2023-02-01T09:24:46.383Z,4
2023-02-01T09:25:49.177Z,4
2023-02-01T09:26:52.601Z,4
2023-02-01T09:27:55.771Z,4
2023-02-01T09:28:58.949Z,4
2023-02-01T09:30:02.318Z,4
2023-02-01T09:31:06.386Z,4
2023-02-01T09:32:10.625Z,4
2023-02-01T09:33:13.780Z,4
2023-02-01T09:34:17.187Z,4
2023-02-01T09:35:20.257Z,4
2023-02-01T09:36:23.168Z,4
2023-02-01T09:37:26.543Z,4
2023-02-01T09:38:31.043Z,4.1
2023-02-01T09:39:36.144Z,4.1
2023-02-01T09:40:38.963Z,4.1
2023-02-01T09:41:42.981Z,4.1
2023-02-01T09:42:46.394Z,4.1
2023-02-01T09:43:49.119Z,4.2
2023-02-01T09:44:52.592Z,4.2
2023-02-01T09:45:56.098Z,4.3
2023-02-01T09:46:59.423Z,4.5
2023-02-01T09:48:02.457Z,4.6
2023-02-01T09:49:05.895Z,4.7
2023-02-01T09:50:09.410Z,4.8
2023-02-01T09:51:12.495Z,4.8
2023-02-01T09:52:15.711Z,4.9
2023-02-01T09:53:19.027Z,4.9
2023-02-01T09:54:22.439Z,4.9
2023-02-01T09:55:26.099Z,5
2023-02-01T09:56:28.906Z,5.1
2023-02-01T09:57:32.622Z,5.1
2023-02-01T09:58:36.039Z,5.1
2023-02-01T09:59:39.165Z,5.1
2023-02-01T10:00:42.263Z,5.1
2023-02-01T10:01:46.456Z,5.1
2023-02-01T10:02:50.639Z,5.1
2023-02-01T10:03:54.748Z,5.1
2023-02-01T10:04:58.123Z,5.1
2023-02-01T10:06:01.571Z,5.1
2023-02-01T10:07:05.098Z,5.1
2023-02-01T10:08:08.819Z,5.1
2023-02-01T10:09:12.168Z,5.1
2023-02-01T10:10:15.247Z,5.1
2023-02-01T10:11:18.613Z,5.1
2023-02-01T10:12:21.463Z,5.1
2023-02-01T10:13:24.725Z,5
2023-02-01T10:14:28.487Z,5
2023-02-01T10:15:31.740Z,5
2023-02-01T10:16:36.353Z,5
2023-02-01T10:17:39.552Z,5
2023-02-01T10:18:42.975Z,5
2023-02-01T10:19:46.739Z,5
2023-02-01T10:20:50.239Z,4.9
2023-02-01T10:21:53.508Z,4.9
2023-02-01T10:23:36.017Z,4.9
2023-02-01T10:24:39.712Z,4.8
2023-02-01T10:25:43.363Z,4.8
2023-02-01T10:26:46.973Z,4.8
2023-02-01T10:27:50.182Z,4.7
2023-02-01T10:28:53.845Z,4.8
2023-02-01T10:29:57.526Z,5.1
2023-02-01T10:31:02.053Z,5.4
2023-02-01T10:32:05.404Z,5.6
2023-02-01T10:33:08.239Z,5.7
2023-02-01T10:34:11.300Z,5.9
2023-02-01T10:35:14.426Z,6
2023-02-01T10:36:17.732Z,6.2
2023-02-01T10:37:21.205Z,6.4
2023-02-01T10:38:24.303Z,6.6
2023-02-01T10:39:27.673Z,6.8
2023-02-01T10:40:31.545Z,6.9
2023-02-01T10:41:34.918Z,7.1
2023-02-01T10:42:38.363Z,6.9
2023-02-01T10:43:41.787Z,7
2023-02-01T10:44:45.217Z,7
2023-02-01T10:45:48.594Z,7.1
2023-02-01T10:46:52.284Z,7.2
2023-02-01T10:47:55.779Z,7.3
2023-02-01T10:48:59.159Z,7.6
2023-02-01T10:50:02.552Z,7.7
2023-02-01T10:51:06.009Z,7.8
2023-02-01T10:52:08.744Z,7.8
2023-02-01T10:53:12.749Z,7.8
2023-02-01T10:54:16.846Z,7.7
2023-02-01T10:55:20.594Z,7.7
2023-02-01T10:56:23.657Z,7.7
2023-02-01T10:57:27.130Z,7.3
2023-02-01T10:58:29.975Z,7.3
2023-02-01T10:59:33.331Z,7.4
2023-02-01T11:00:36.358Z,7.2
2023-02-01T11:01:39.141Z,7.4
2023-02-01T11:02:42.739Z,7.5
2023-02-01T11:03:46.251Z,7.3
2023-02-01T11:04:49.318Z,7.2
2023-02-01T11:05:52.111Z,7.1
2023-02-01T11:06:55.450Z,7.1
2023-02-01T11:07:58.952Z,7.2
2023-02-01T11:09:02.797Z,7.3
2023-02-01T11:10:06.072Z,7.1
2023-02-01T11:11:09.240Z,7
2023-02-01T11:12:12.392Z,7
2023-02-01T11:13:15.840Z,7
2023-02-01T11:14:18.298Z,6.8
2023-02-01T11:15:23.680Z,6.8
2023-02-01T11:16:27.014Z,6.7
2023-02-01T11:17:30.495Z,6.5
2023-02-01T11:18:34.222Z,6.4
2023-02-01T11:19:36.969Z,6.4
2023-02-01T11:20:39.981Z,6.3
2023-02-01T11:21:43.116Z,6.2
2023-02-01T11:22:46.833Z,6.1
2023-02-01T11:23:50.055Z,5.9
2023-02-01T11:24:53.509Z,5.8
2023-02-01T11:25:56.667Z,5.7
2023-02-01T11:27:01.695Z,5.7
2023-02-01T11:28:05.343Z,5.6
2023-02-01T11:29:08.638Z,5.6
2023-02-01T11:30:11.483Z,5.6
2023-02-01T11:31:15.919Z,5.7
2023-02-01T11:32:20.102Z,5.7
2023-02-01T11:33:23.795Z,5.6
2023-02-01T11:34:26.867Z,5.6
2023-02-01T11:35:30.105Z,5.6
2023-02-01T11:36:33.036Z,5.6
2023-02-01T11:37:36.542Z,5.6
2023-02-01T11:38:39.975Z,5.7
2023-02-01T11:39:42.742Z,5.6
2023-02-01T11:40:46.170Z,5.6
2023-02-01T11:41:49.786Z,5.6
2023-02-01T11:44:46.823Z,5.6
2023-02-01T11:45:50.809Z,5.6
2023-02-01T11:46:53.886Z,5.6
2023-02-01T11:47:56.491Z,5.6
2023-02-01T11:48:59.482Z,5.6
2023-02-01T11:50:02.558Z,5.5
2023-02-01T11:51:08.698Z,5.5
2023-02-01T11:52:12.460Z,5.5
2023-02-01T11:53:16.293Z,5.4
2023-02-01T11:54:19.177Z,5.5
2023-02-01T11:55:22.843Z,5.5
2023-02-01T11:56:26.586Z,5.4
2023-02-01T11:57:29.977Z,5.5
2023-02-01T11:58:33.727Z,5.5
2023-02-01T11:59:57.488Z,5.6
2023-02-01T12:01:01.432Z,5.5
2023-02-01T12:02:04.769Z,5.3
2023-02-01T12:03:08.019Z,5.2
2023-02-01T12:04:11.415Z,5.2
2023-02-01T12:05:14.948Z,5.1
2023-02-01T12:06:19.007Z,5.1
2023-02-01T12:07:22.450Z,5.1
2023-02-01T12:08:26.187Z,5.1
2023-02-01T12:09:29.292Z,5.1
2023-02-01T12:10:32.650Z,5.1
2023-02-01T12:11:36.715Z,5.1
2023-02-01T12:12:39.144Z,5.1
2023-02-01T12:13:41.877Z,5.1
2023-02-01T12:14:45.239Z,5.1
2023-02-01T12:15:48.331Z,5.1
2023-02-01T12:16:52.391Z,5
2023-02-01T12:17:55.177Z,5.1
2023-02-01T12:18:58.277Z,5.1
2023-02-01T12:20:01.937Z,5.2
2023-02-01T12:21:04.995Z,5.2
2023-02-01T12:22:08.764Z,5.1
2023-02-01T12:23:12.410Z,5.1
2023-02-01T12:24:15.145Z,5.1
2023-02-01T12:25:18.918Z,5.1
2023-02-01T12:26:22.523Z,5.2
2023-02-01T12:27:26.654Z,5.2
2023-02-01T12:28:30.304Z,5.1
2023-02-01T12:29:33.765Z,5.1
2023-02-01T12:30:36.431Z,5.1
2023-02-01T12:31:40.251Z,5.1
2023-02-01T12:32:44.066Z,5.1
2023-02-01T12:33:47.041Z,5
2023-02-01T12:34:49.761Z,4.9
2023-02-01T12:35:53.486Z,4.8
2023-02-01T12:36:56.763Z,4.8
2023-02-01T12:38:01.050Z,4.8
2023-02-01T12:39:04.566Z,4.8
2023-02-01T12:40:07.708Z,4.7
2023-02-01T12:41:10.854Z,4.8
2023-02-01T12:42:14.494Z,4.8
2023-02-01T12:43:17.880Z,4.9
2023-02-01T12:44:21.422Z,4.9
2023-02-01T12:45:24.253Z,4.9
2023-02-01T12:46:27.781Z,4.9
2023-02-01T12:47:30.795Z,4.8
2023-02-01T12:48:34.524Z,4.8
2023-02-01T12:49:37.880Z,4.8
2023-02-01T12:50:40.881Z,4.8
2023-02-01T12:51:44.582Z,4.6
2023-02-01T12:52:47.961Z,4.6
2023-02-01T12:53:51.472Z,4.6
2023-02-01T12:54:55.097Z,4.5
2023-02-01T12:55:58.412Z,4.5
2023-02-01T12:57:01.973Z,4.5
2023-02-01T12:58:04.724Z,4.4
2023-02-01T12:59:08.173Z,4.4
2023-02-01T13:00:11.044Z,4.4
2023-02-01T13:01:14.663Z,4.5
2023-02-01T13:02:18.132Z,4.5
2023-02-01T13:03:21.659Z,4.5
2023-02-01T13:04:25.170Z,4.5
2023-02-01T13:05:28.524Z,4.6
2023-02-01T13:06:31.910Z,4.6
2023-02-01T13:07:35.069Z,4.6
2023-02-01T13:08:38.811Z,4.6
2023-02-01T13:09:42.272Z,4.7
2023-02-01T13:10:45.625Z,4.7
2023-02-01T13:11:49.003Z,4.7
2023-02-01T13:12:52.240Z,4.7
2023-02-01T13:13:56.310Z,4.7
2023-02-01T13:14:59.826Z,4.7
2023-02-01T13:16:03.497Z,4.6
2023-02-01T13:17:06.611Z,4.6
2023-02-01T13:18:10.092Z,4.6
2023-02-01T13:19:12.871Z,4.6
2023-02-01T13:20:16.598Z,4.6
2023-02-01T13:21:19.615Z,4.6
2023-02-01T13:22:23.298Z,4.6
2023-02-01T13:23:27.338Z,4.6
2023-02-01T13:24:30.282Z,4.7
2023-02-01T13:25:34.106Z,4.7
2023-02-01T13:26:37.345Z,4.7
2023-02-01T13:27:41.157Z,4.7
2023-02-01T13:28:44.286Z,4.7
2023-02-01T13:29:47.644Z,4.7
2023-02-01T13:30:52.281Z,4.7
2023-02-01T13:31:57.430Z,4.6
2023-02-01T13:33:58.544Z,4.6
2023-02-01T13:35:03.015Z,4.6
2023-02-01T13:36:06.200Z,4.6
2023-02-01T13:37:09.762Z,4.6
2023-02-01T13:38:13.469Z,4.5
2023-02-01T13:39:17.142Z,4.5
2023-02-01T13:40:20.541Z,4.5
2023-02-01T13:41:24.035Z,4.4
2023-02-01T13:42:27.712Z,4.3
2023-02-01T13:43:30.822Z,4.4
2023-02-01T13:44:34.672Z,4.4
2023-02-01T13:45:38.219Z,4.4
2023-02-01T13:46:41.726Z,4.3
2023-02-01T13:47:44.783Z,4.3
2023-02-01T13:48:48.150Z,4.2
2023-02-01T13:49:51.420Z,4.2
2023-02-01T13:50:54.156Z,4.2
2023-02-01T13:51:57.285Z,4.1
2023-02-01T13:52:59.820Z,4.1
2023-02-01T13:54:03.346Z,4.1
2023-02-01T13:55:06.808Z,4.1
2023-02-01T13:56:10.156Z,4
2023-02-01T13:57:13.170Z,4
2023-02-01T13:58:15.616Z,3.9
2023-02-01T13:59:19.527Z,3.8
2023-02-01T14:00:22.377Z,3.8
2023-02-01T14:01:26.710Z,3.8
2023-02-01T14:02:30.808Z,3.9
2023-02-01T14:03:34.808Z,3.9
2023-02-01T14:04:38.609Z,3.8
2023-02-01T14:05:42.028Z,3.8
2023-02-01T14:06:45.453Z,3.8
2023-02-01T14:07:48.847Z,3.8
2023-02-01T14:08:52.111Z,3.8
2023-02-01T14:09:55.727Z,3.8
2023-02-01T14:10:59.475Z,3.9
2023-02-01T14:12:03.484Z,3.9
2023-02-01T14:13:06.884Z,3.9
2023-02-01T14:14:10.234Z,3.8
2023-02-01T14:15:13.603Z,3.9
2023-02-01T14:16:17.407Z,3.9
2023-02-01T14:17:21.688Z,4
2023-02-01T14:18:24.616Z,3.9
2023-02-01T14:19:27.381Z,4
2023-02-01T14:20:31.946Z,4
2023-02-01T14:21:35.325Z,4
2023-02-01T14:22:38.344Z,4
2023-02-01T14:23:41.749Z,4
2023-02-01T14:24:45.101Z,4
2023-02-01T14:25:49.102Z,4
2023-02-01T14:26:52.264Z,4.1
2023-02-01T14:27:55.136Z,4
2023-02-01T14:28:57.961Z,3.9
2023-02-01T14:30:01.156Z,4
2023-02-01T14:31:04.754Z,3.9
2023-02-01T14:32:07.966Z,4
2023-02-01T14:33:11.673Z,4
2023-02-01T14:34:15.130Z,3.9
2023-02-01T14:35:17.954Z,3.9
2023-02-01T14:36:21.279Z,3.8
2023-02-01T14:37:25.038Z,3.8
2023-02-01T14:38:29.131Z,3.8
2023-02-01T14:39:32.601Z,3.8
2023-02-01T14:40:36.343Z,3.8
2023-02-01T14:41:44.155Z,3.8
2023-02-01T14:42:47.542Z,3.8